Time;durP1;ratioP1;P1;durP2;ratioP2;P2;SDS_P1;SDS_P2;PMS_P1;PMS_P2;Temp;Humidity;BMP_temperature;BMP_pressure;BME280_temperature;BME280_humidity;BME280_pressure;Samples;Min_cycle;Max_cycle;Signal;HPM_P1;HPM_P2
2021/12/20 00:01:29;;;;;;;7.03;1.60;;;;;;;;;;4181876;28;20434;-68
2021/12/20 00:03:55;;;;;;;7.73;1.50;;;;;;;;;;4190783;28;20301;-68
2021/12/20 00:06:22;;;;;;;5.37;1.63;;;;;;;;;;4193108;28;20233;-71
2021/12/20 00:08:48;;;;;;;6.67;1.77;;;;;;;;;;4184094;28;20256;-68
2021/12/20 00:11:15;;;;;;;8.80;1.97;;;;;;;;;;4201057;28;20277;-70
2021/12/20 00:13:41;;;;;;;5.57;1.73;;;;;;;;;;4194030;28;20236;-71
2021/12/20 00:16:07;;;;;;;5.47;1.60;;;;;;;;;;4192152;28;20726;-70
2021/12/20 00:18:34;;;;;;;8.70;1.80;;;;;;;;;;4185564;28;26021;-68
2021/12/20 00:21:02;;;;;;;7.43;2.07;;;;;;;;;;4194725;28;20389;-70
2021/12/20 00:23:28;;;;;;;5.77;2.10;;;;;;;;;;4199288;28;20300;-71
2021/12/20 00:25:56;;;;;;;7.00;1.63;;;;;;;;;;4191399;28;20687;-69
2021/12/20 00:28:22;;;;;;;5.77;1.70;;;;;;;;;;4184561;28;20254;-68
2021/12/20 00:30:49;;;;;;;6.60;1.97;;;;;;;;;;4187527;28;22985;-68
2021/12/20 00:33:15;;;;;;;4.53;1.90;;;;;;;;;;4192617;28;20339;-69
2021/12/20 00:35:42;;;;;;;4.93;1.90;;;;;;;;;;4201219;28;23073;-71
2021/12/20 00:40:54;;;;;;;6.00;1.60;;;;;;;;;;4194007;28;20366;-69
2021/12/20 00:43:20;;;;;;;6.67;1.63;;;;;;;;;;4215174;28;22258;-68
2021/12/20 00:45:47;;;;;;;6.63;1.90;;;;;;;;;;4193824;28;20320;-70
2021/12/20 00:48:13;;;;;;;8.50;1.87;;;;;;;;;;4186632;28;20261;-69
2021/12/20 00:50:40;;;;;;;5.87;1.77;;;;;;;;;;4200495;28;20300;-68
2021/12/20 00:53:08;;;;;;;6.80;1.90;;;;;;;;;;4202050;28;20274;-68
2021/12/20 00:55:34;;;;;;;5.43;1.50;;;;;;;;;;4197088;28;20633;-70
2021/12/20 00:58:00;;;;;;;7.23;2.03;;;;;;;;;;4207587;28;20226;-68
2021/12/20 01:00:29;;;;;;;5.70;1.60;;;;;;;;;;4206218;28;21296;-70
2021/12/20 01:02:55;;;;;;;7.37;1.97;;;;;;;;;;4200031;28;20244;-69
2021/12/20 01:05:22;;;;;;;6.77;1.80;;;;;;;;;;4205110;28;20400;-68
2021/12/20 01:07:49;;;;;;;17.23;2.43;;;;;;;;;;4199798;28;20225;-68
2021/12/20 01:10:16;;;;;;;3.90;1.60;;;;;;;;;;4218220;28;20227;-68
2021/12/20 01:12:49;;;;;;;7.60;1.63;;;;;;;;;;4188302;28;20245;-70
2021/12/20 01:15:17;;;;;;;5.13;1.60;;;;;;;;;;4206239;28;20247;-69
2021/12/20 01:17:43;;;;;;;7.80;1.70;;;;;;;;;;4201117;28;20339;-67
2021/12/20 01:20:10;;;;;;;5.20;1.60;;;;;;;;;;4198539;28;26792;-68
2021/12/20 01:22:37;;;;;;;4.63;1.40;;;;;;;;;;4197816;28;22367;-71
2021/12/20 01:25:03;;;;;;;5.40;1.90;;;;;;;;;;4200462;28;20306;-70
2021/12/20 01:27:30;;;;;;;9.37;1.80;;;;;;;;;;4212286;28;20638;-69
2021/12/20 01:29:56;;;;;;;4.87;1.40;;;;;;;;;;4212108;28;22812;-68
2021/12/20 01:32:23;;;;;;;5.67;1.60;;;;;;;;;;4197223;28;21366;-69
2021/12/20 01:34:49;;;;;;;3.37;1.43;;;;;;;;;;4212192;28;20237;-70
2021/12/20 01:37:16;;;;;;;8.10;1.77;;;;;;;;;;4213815;28;20237;-71
2021/12/20 01:39:42;;;;;;;6.57;1.23;;;;;;;;;;4208254;28;20291;-70
2021/12/20 01:42:09;;;;;;;5.17;1.80;;;;;;;;;;4211800;28;20226;-68
2021/12/20 01:44:36;;;;;;;4.27;1.50;;;;;;;;;;4193745;28;20300;-69
2021/12/20 01:47:03;;;;;;;7.53;1.70;;;;;;;;;;4214722;28;20387;-69
2021/12/20 01:49:38;;;;;;;5.30;1.60;;;;;;;;;;4213756;28;20274;-69
2021/12/20 01:52:11;;;;;;;6.90;1.77;;;;;;;;;;4204097;28;20239;-68
2021/12/20 01:54:37;;;;;;;7.03;1.40;;;;;;;;;;4211009;28;20280;-68
2021/12/20 01:57:04;;;;;;;5.50;1.27;;;;;;;;;;4204811;28;20407;-69
2021/12/20 01:59:30;;;;;;;4.83;1.80;;;;;;;;;;4197744;28;20361;-69
2021/12/20 02:01:57;;;;;;;5.03;1.40;;;;;;;;;;4202341;28;20546;-68
2021/12/20 02:04:23;;;;;;;6.03;1.57;;;;;;;;;;4200869;28;25255;-68
2021/12/20 02:06:50;;;;;;;6.23;1.80;;;;;;;;;;4194168;28;22062;-67
2021/12/20 02:09:18;;;;;;;5.80;1.90;;;;;;;;;;4200679;28;20307;-69
2021/12/20 02:11:46;;;;;;;5.17;1.33;;;;;;;;;;4187147;28;20850;-68
2021/12/20 02:14:12;;;;;;;6.13;1.63;;;;;;;;;;4207215;28;20952;-67
2021/12/20 02:16:40;;;;;;;4.23;1.70;;;;;;;;;;4189740;28;20522;-69
2021/12/20 02:19:11;;;;;;;6.87;1.90;;;;;;;;;;4199628;28;21533;-69
2021/12/20 02:21:38;;;;;;;6.57;1.47;;;;;;;;;;4199464;28;20385;-69
2021/12/20 02:24:04;;;;;;;6.07;1.50;;;;;;;;;;4214164;28;20241;-70
2021/12/20 02:26:31;;;;;;;6.67;1.40;;;;;;;;;;4205934;28;20240;-68
2021/12/20 02:29:03;;;;;;;5.13;1.60;;;;;;;;;;4251056;28;20340;-70
2021/12/20 02:39:47;;;;;;;2.90;1.20;;;;;;;;;;4198995;28;20227;-67
2021/12/20 02:42:18;;;;;;;6.83;1.60;;;;;;;;;;4200684;28;20287;-70
2021/12/20 02:44:52;;;;;;;4.67;1.43;;;;;;;;;;4196691;28;20645;-70
2021/12/20 02:47:28;;;;;;;6.17;1.30;;;;;;;;;;4196563;28;21478;-69
2021/12/20 02:49:56;;;;;;;3.80;1.67;;;;;;;;;;4200742;28;20240;-69
2021/12/20 02:52:22;;;;;;;5.17;2.13;;;;;;;;;;4202094;28;20351;-70
2021/12/20 02:54:49;;;;;;;4.37;1.37;;;;;;;;;;4208455;28;22866;-70
2021/12/20 02:57:15;;;;;;;5.13;1.53;;;;;;;;;;4224993;28;20240;-70
2021/12/20 02:59:42;;;;;;;7.07;1.90;;;;;;;;;;4203309;28;20239;-68
2021/12/20 03:02:10;;;;;;;3.63;1.40;;;;;;;;;;4218370;28;20652;-70
2021/12/20 03:04:37;;;;;;;5.03;2.03;;;;;;;;;;4213790;28;20658;-70
2021/12/20 03:07:06;;;;;;;4.00;1.40;;;;;;;;;;4197793;28;22301;-69
2021/12/20 03:09:37;;;;;;;4.53;1.40;;;;;;;;;;4202164;28;20262;-69
2021/12/20 03:12:05;;;;;;;5.00;1.47;;;;;;;;;;4208162;28;20240;-68
2021/12/20 03:14:42;;;;;;;6.57;2.27;;;;;;;;;;4200850;28;20230;-68
2021/12/20 03:17:09;;;;;;;4.37;2.33;;;;;;;;;;4202943;28;20236;-68
2021/12/20 03:19:35;;;;;;;5.63;2.23;;;;;;;;;;4211315;28;20305;-70
2021/12/20 03:22:02;;;;;;;8.03;2.00;;;;;;;;;;4211957;28;20314;-68
2021/12/20 03:24:29;;;;;;;5.73;2.20;;;;;;;;;;4201735;28;20275;-67
2021/12/20 03:26:56;;;;;;;5.30;1.70;;;;;;;;;;4201450;28;22381;-68
2021/12/20 03:29:23;;;;;;;9.03;2.20;;;;;;;;;;4221322;28;20456;-69
2021/12/20 03:31:49;;;;;;;3.40;1.60;;;;;;;;;;4219715;28;21647;-69
2021/12/20 03:34:17;;;;;;;6.60;2.13;;;;;;;;;;4272470;28;20238;-70
2021/12/20 03:36:43;;;;;;;8.27;2.40;;;;;;;;;;4202664;28;21928;-67
2021/12/20 03:39:09;;;;;;;6.10;2.00;;;;;;;;;;4212004;28;20532;-68
2021/12/20 03:41:36;;;;;;;5.13;2.03;;;;;;;;;;4181823;28;20232;-69
2021/12/20 03:44:03;;;;;;;4.43;1.63;;;;;;;;;;4204396;28;20366;-68
2021/12/20 03:46:30;;;;;;;6.13;1.40;;;;;;;;;;4206967;28;21297;-69
2021/12/20 03:48:56;;;;;;;8.97;1.43;;;;;;;;;;4219114;28;20237;-68
2021/12/20 03:51:23;;;;;;;9.20;1.80;;;;;;;;;;4216196;28;21419;-70
2021/12/20 03:53:49;;;;;;;5.17;1.40;;;;;;;;;;4206853;28;20447;-68
2021/12/20 03:56:16;;;;;;;2.67;1.40;;;;;;;;;;4202958;28;20229;-70
2021/12/20 03:58:42;;;;;;;6.57;1.30;;;;;;;;;;4200835;28;20246;-71
2021/12/20 04:01:10;;;;;;;6.43;1.60;;;;;;;;;;4207258;28;24699;-70
2021/12/20 04:03:37;;;;;;;3.00;1.40;;;;;;;;;;4207223;28;20301;-68
2021/12/20 04:06:05;;;;;;;4.93;1.10;;;;;;;;;;4199337;28;22096;-67
2021/12/20 04:08:32;;;;;;;2.97;1.30;;;;;;;;;;4190614;28;20237;-69
2021/12/20 04:10:59;;;;;;;3.63;1.60;;;;;;;;;;4213737;28;20410;-69
2021/12/20 04:13:26;;;;;;;6.93;1.23;;;;;;;;;;4186838;28;20301;-68
2021/12/20 04:15:56;;;;;;;5.30;1.60;;;;;;;;;;4193750;28;20225;-69
2021/12/20 04:18:23;;;;;;;4.60;1.23;;;;;;;;;;4207681;28;20304;-70
2021/12/20 04:20:50;;;;;;;3.27;1.40;;;;;;;;;;4193187;28;20224;-69
2021/12/20 04:23:17;;;;;;;4.30;1.57;;;;;;;;;;4205075;28;20374;-68
2021/12/20 04:25:43;;;;;;;5.30;1.57;;;;;;;;;;4196398;28;21729;-69
2021/12/20 04:28:10;;;;;;;3.47;1.10;;;;;;;;;;4202880;28;27206;-70
2021/12/20 04:30:36;;;;;;;2.50;1.10;;;;;;;;;;4197375;28;20265;-68
2021/12/20 04:33:03;;;;;;;3.93;1.13;;;;;;;;;;4203615;28;20228;-69
2021/12/20 04:35:30;;;;;;;3.73;0.90;;;;;;;;;;4192466;28;20243;-67
2021/12/20 04:37:58;;;;;;;2.30;1.10;;;;;;;;;;4192937;28;20468;-68
2021/12/20 04:40:25;;;;;;;3.33;1.27;;;;;;;;;;4218149;28;20236;-69
2021/12/20 04:42:53;;;;;;;2.80;1.23;;;;;;;;;;4200399;28;20232;-69
2021/12/20 04:45:21;;;;;;;4.43;1.30;;;;;;;;;;4213343;28;20365;-69
2021/12/20 04:47:47;;;;;;;3.07;1.10;;;;;;;;;;4200808;28;20580;-68
2021/12/20 04:50:14;;;;;;;4.03;1.03;;;;;;;;;;4214033;28;20229;-69
2021/12/20 04:52:41;;;;;;;2.37;1.30;;;;;;;;;;4206517;28;20242;-70
2021/12/20 04:55:08;;;;;;;3.60;1.30;;;;;;;;;;4200317;28;20308;-68
2021/12/20 04:57:35;;;;;;;6.47;1.50;;;;;;;;;;4193031;28;20233;-69
2021/12/20 05:00:03;;;;;;;2.60;1.30;;;;;;;;;;4201794;28;20789;-69
2021/12/20 05:02:30;;;;;;;4.63;1.20;;;;;;;;;;4188399;28;20305;-68
2021/12/20 05:04:56;;;;;;;3.73;1.40;;;;;;;;;;4198515;28;20245;-71
2021/12/20 05:07:26;;;;;;;5.60;1.53;;;;;;;;;;4212243;28;20321;-67
2021/12/20 05:09:57;;;;;;;3.20;1.50;;;;;;;;;;4215405;28;20619;-71
2021/12/20 05:12:24;;;;;;;4.20;1.50;;;;;;;;;;4211319;28;22128;-71
2021/12/20 05:14:50;;;;;;;6.00;1.70;;;;;;;;;;4183381;28;21274;-70
2021/12/20 05:17:17;;;;;;;7.33;1.70;;;;;;;;;;4211755;28;21640;-68
2021/12/20 05:19:43;;;;;;;3.83;1.40;;;;;;;;;;4201658;28;24722;-68
2021/12/20 05:22:10;;;;;;;4.40;1.60;;;;;;;;;;4189978;28;21265;-69
2021/12/20 05:24:37;;;;;;;2.90;1.50;;;;;;;;;;4189994;28;20287;-68
2021/12/20 05:27:04;;;;;;;2.80;1.47;;;;;;;;;;4205960;28;20255;-68
2021/12/20 05:29:30;;;;;;;3.93;1.73;;;;;;;;;;4205356;28;21351;-69
2021/12/20 05:31:58;;;;;;;4.87;1.67;;;;;;;;;;4199507;28;20310;-71
2021/12/20 05:34:24;;;;;;;3.63;1.97;;;;;;;;;;4203964;28;20590;-68
2021/12/20 05:36:51;;;;;;;3.83;1.60;;;;;;;;;;4196405;28;20282;-69
2021/12/20 05:39:17;;;;;;;3.93;1.90;;;;;;;;;;4194631;28;22387;-70
2021/12/20 05:41:43;;;;;;;5.27;1.77;;;;;;;;;;4195031;28;20294;-67
2021/12/20 05:44:11;;;;;;;3.07;1.77;;;;;;;;;;4186111;28;20244;-68
2021/12/20 05:46:37;;;;;;;6.17;2.13;;;;;;;;;;4173367;28;20234;-70
2021/12/20 05:49:03;;;;;;;5.17;1.80;;;;;;;;;;4192182;28;20280;-70
2021/12/20 05:51:30;;;;;;;5.60;2.03;;;;;;;;;;4182973;28;22084;-69
2021/12/20 05:53:57;;;;;;;3.83;1.90;;;;;;;;;;4207844;28;20243;-70
2021/12/20 05:56:23;;;;;;;4.17;2.10;;;;;;;;;;4213200;28;20260;-71
2021/12/20 05:58:50;;;;;;;3.27;2.13;;;;;;;;;;4194690;28;20311;-69
2021/12/20 06:01:16;;;;;;;6.67;2.67;;;;;;;;;;4201163;28;20234;-68
2021/12/20 06:03:42;;;;;;;7.13;2.37;;;;;;;;;;4202282;28;20683;-70
2021/12/20 06:06:09;;;;;;;5.63;2.67;;;;;;;;;;4189252;28;20302;-70
2021/12/20 06:08:35;;;;;;;4.70;2.50;;;;;;;;;;4198687;28;20237;-69
2021/12/20 06:11:02;;;;;;;7.93;2.73;;;;;;;;;;4202763;28;20232;-70
2021/12/20 06:13:30;;;;;;;5.10;2.83;;;;;;;;;;4190153;28;20368;-69
2021/12/20 06:15:57;;;;;;;4.20;2.30;;;;;;;;;;4203394;28;20233;-69
2021/12/20 06:18:23;;;;;;;4.50;2.70;;;;;;;;;;4200349;28;20318;-70
2021/12/20 06:20:49;;;;;;;6.57;3.07;;;;;;;;;;4222904;28;20329;-71
2021/12/20 06:23:16;;;;;;;6.27;3.10;;;;;;;;;;4200567;28;20233;-71
2021/12/20 06:25:42;;;;;;;4.17;2.83;;;;;;;;;;4197493;28;20305;-71
2021/12/20 06:28:09;;;;;;;3.77;2.57;;;;;;;;;;4211344;28;20244;-69
2021/12/20 06:30:35;;;;;;;5.40;2.37;;;;;;;;;;4192700;28;20318;-70
2021/12/20 06:33:01;;;;;;;4.03;2.43;;;;;;;;;;4206735;28;22744;-69
2021/12/20 06:35:33;;;;;;;3.60;2.40;;;;;;;;;;4196443;28;20237;-69
2021/12/20 06:38:00;;;;;;;5.10;2.57;;;;;;;;;;4196266;28;20373;-69
2021/12/20 06:40:27;;;;;;;4.53;2.87;;;;;;;;;;4206702;28;20545;-70
2021/12/20 06:42:54;;;;;;;3.33;2.40;;;;;;;;;;4206974;28;21861;-70
2021/12/20 06:45:20;;;;;;;4.43;2.57;;;;;;;;;;4229209;28;20315;-68
2021/12/20 06:47:47;;;;;;;4.77;2.57;;;;;;;;;;4194878;28;20248;-68
2021/12/20 06:50:14;;;;;;;5.33;2.23;;;;;;;;;;4193032;28;20259;-72
2021/12/20 06:52:40;;;;;;;3.97;2.30;;;;;;;;;;4195434;28;20299;-70
2021/12/20 06:55:09;;;;;;;4.53;2.57;;;;;;;;;;4202442;28;20233;-70
2021/12/20 06:57:36;;;;;;;5.27;2.00;;;;;;;;;;4200890;28;20236;-69
2021/12/20 07:00:03;;;;;;;4.17;2.30;;;;;;;;;;4219709;28;20684;-70
2021/12/20 07:02:30;;;;;;;3.93;2.37;;;;;;;;;;4205428;28;20227;-70
2021/12/20 07:04:56;;;;;;;4.17;2.13;;;;;;;;;;4211703;28;20310;-72
2021/12/20 07:07:23;;;;;;;4.70;2.20;;;;;;;;;;4214714;28;20239;-70
2021/12/20 07:09:49;;;;;;;4.00;2.20;;;;;;;;;;4210377;28;20237;-69
2021/12/20 07:12:16;;;;;;;7.03;2.60;;;;;;;;;;4203546;28;20249;-69
2021/12/20 07:14:42;;;;;;;4.17;2.10;;;;;;;;;;4197013;28;21775;-70
2021/12/20 07:17:10;;;;;;;3.50;2.10;;;;;;;;;;4224299;28;22530;-72
2021/12/20 07:19:36;;;;;;;3.47;2.17;;;;;;;;;;4234217;28;24024;-70
2021/12/20 07:22:03;;;;;;;4.43;2.40;;;;;;;;;;4236444;28;20252;-71
2021/12/20 07:24:29;;;;;;;4.20;2.67;;;;;;;;;;4222206;28;20436;-70
2021/12/20 07:26:55;;;;;;;4.90;2.80;;;;;;;;;;4225382;28;20439;-70
2021/12/20 07:29:22;;;;;;;5.83;2.90;;;;;;;;;;4194703;28;25155;-73
2021/12/20 07:31:51;;;;;;;5.57;3.03;;;;;;;;;;4214251;28;22282;-72
2021/12/20 07:34:17;;;;;;;5.70;3.30;;;;;;;;;;4253324;28;20291;-69
2021/12/20 07:36:44;;;;;;;7.33;3.30;;;;;;;;;;4230425;28;20248;-70
2021/12/20 07:39:10;;;;;;;6.40;3.10;;;;;;;;;;4260495;28;21933;-72
2021/12/20 07:41:51;;;;;;;7.07;3.10;;;;;;;;;;4246083;28;20352;-70
2021/12/20 07:44:18;;;;;;;4.53;2.70;;;;;;;;;;4212260;28;20455;-71
2021/12/20 07:46:45;;;;;;;4.97;3.00;;;;;;;;;;4220642;28;20288;-69
2021/12/20 07:49:11;;;;;;;7.00;3.10;;;;;;;;;;4246467;28;20265;-69
2021/12/20 07:51:38;;;;;;;3.93;2.50;;;;;;;;;;4250352;28;21361;-71
2021/12/20 07:54:04;;;;;;;4.73;2.70;;;;;;;;;;4215190;28;20245;-70
2021/12/20 07:56:31;;;;;;;3.53;2.27;;;;;;;;;;4223301;28;20236;-71
2021/12/20 07:58:57;;;;;;;6.57;2.33;;;;;;;;;;4267015;28;20974;-70
2021/12/20 08:01:24;;;;;;;4.80;3.00;;;;;;;;;;4209533;28;20328;-71
2021/12/20 08:03:51;;;;;;;5.90;2.70;;;;;;;;;;4197755;28;20326;-71
2021/12/20 08:06:17;;;;;;;4.30;2.57;;;;;;;;;;4202767;28;20245;-71
2021/12/20 08:08:44;;;;;;;4.93;2.30;;;;;;;;;;4191030;28;26753;-71
2021/12/20 08:11:10;;;;;;;5.10;2.40;;;;;;;;;;4216089;28;20269;-72
2021/12/20 08:13:44;;;;;;;3.70;1.87;;;;;;;;;;4194139;28;20241;-69
2021/12/20 08:16:11;;;;;;;3.77;1.87;;;;;;;;;;4213411;28;20284;-70
2021/12/20 08:18:39;;;;;;;3.53;2.33;;;;;;;;;;4196636;28;20221;-70
2021/12/20 08:21:06;;;;;;;6.03;2.70;;;;;;;;;;4200673;28;20224;-70
2021/12/20 08:23:33;;;;;;;4.07;2.70;;;;;;;;;;4211937;28;20239;-71
2021/12/20 08:26:00;;;;;;;3.10;2.50;;;;;;;;;;4207585;28;21807;-73
2021/12/20 08:28:27;;;;;;;4.80;2.73;;;;;;;;;;4214003;28;20240;-70
2021/12/20 08:30:53;;;;;;;3.87;2.50;;;;;;;;;;4208739;28;21358;-72
2021/12/20 08:33:20;;;;;;;6.10;3.00;;;;;;;;;;4211035;28;20258;-73
2021/12/20 08:35:49;;;;;;;4.90;3.30;;;;;;;;;;4204737;28;20239;-71
2021/12/20 08:38:18;;;;;;;3.57;2.77;;;;;;;;;;4223506;28;20308;-71
2021/12/20 08:40:45;;;;;;;5.57;3.27;;;;;;;;;;4218214;28;20234;-71
2021/12/20 08:43:12;;;;;;;5.43;2.70;;;;;;;;;;4204514;28;22978;-70
2021/12/20 08:45:38;;;;;;;4.13;2.53;;;;;;;;;;4200556;28;20720;-71
2021/12/20 08:48:05;;;;;;;4.40;2.73;;;;;;;;;;4240323;28;20256;-71
2021/12/20 08:50:34;;;;;;;4.73;2.90;;;;;;;;;;4216660;28;20314;-70
2021/12/20 08:53:01;;;;;;;3.60;2.50;;;;;;;;;;4223577;28;20249;-70
2021/12/20 08:55:28;;;;;;;6.83;2.90;;;;;;;;;;4208863;28;20256;-70
2021/12/20 08:57:55;;;;;;;4.13;2.40;;;;;;;;;;4211156;28;20233;-68
2021/12/20 09:00:23;;;;;;;7.63;2.00;;;;;;;;;;4230011;28;20673;-71
2021/12/20 09:02:49;;;;;;;5.80;2.30;;;;;;;;;;4227072;28;22173;-74
2021/12/20 09:05:16;;;;;;;5.03;2.03;;;;;;;;;;4223194;28;20257;-72
2021/12/20 09:07:46;;;;;;;5.43;2.40;;;;;;;;;;4218086;28;20295;-72
2021/12/20 09:10:13;;;;;;;4.67;2.50;;;;;;;;;;4210597;28;20291;-71
2021/12/20 09:12:40;;;;;;;7.10;2.80;;;;;;;;;;4221943;28;20260;-71
2021/12/20 09:15:08;;;;;;;7.33;2.70;;;;;;;;;;4222093;28;21801;-67
2021/12/20 09:17:34;;;;;;;3.83;2.13;;;;;;;;;;4209595;28;20651;-68
2021/12/20 09:20:01;;;;;;;3.30;1.63;;;;;;;;;;4211655;28;20274;-68
2021/12/20 09:22:29;;;;;;;3.80;1.70;;;;;;;;;;4214542;28;20233;-67
2021/12/20 09:24:56;;;;;;;2.83;1.03;;;;;;;;;;4202023;28;20245;-69
2021/12/20 09:27:22;;;;;;;5.83;1.10;;;;;;;;;;4223115;28;20227;-69
2021/12/20 09:29:49;;;;;;;1.50;0.90;;;;;;;;;;4199905;28;20359;-69
2021/12/20 09:32:16;;;;;;;2.57;1.20;;;;;;;;;;4190837;28;23801;-70
2021/12/20 09:34:42;;;;;;;3.70;1.17;;;;;;;;;;4220273;28;20463;-68
2021/12/20 09:37:09;;;;;;;2.17;1.00;;;;;;;;;;4209918;28;21859;-70
2021/12/20 09:39:38;;;;;;;6.87;1.70;;;;;;;;;;4190438;28;20275;-67
2021/12/20 09:42:12;;;;;;;3.00;1.00;;;;;;;;;;4215555;28;25709;-67
2021/12/20 09:44:42;;;;;;;3.50;0.80;;;;;;;;;;4210011;28;23322;-70
2021/12/20 09:47:09;;;;;;;1.67;0.83;;;;;;;;;;4224593;28;20321;-69
2021/12/20 09:49:35;;;;;;;1.80;0.73;;;;;;;;;;4218097;28;21104;-70
2021/12/20 09:52:02;;;;;;;2.10;0.80;;;;;;;;;;4222321;28;20291;-66
2021/12/20 09:54:29;;;;;;;1.57;0.70;;;;;;;;;;4207507;28;21856;-66
2021/12/20 09:56:57;;;;;;;3.30;0.90;;;;;;;;;;4222057;28;21723;-69
2021/12/20 09:59:26;;;;;;;3.17;1.17;;;;;;;;;;4205211;28;20299;-57
2021/12/20 10:01:53;;;;;;;1.83;0.97;;;;;;;;;;4186622;28;26363;-66
2021/12/20 10:04:22;;;;;;;3.03;1.10;;;;;;;;;;4229434;28;21896;-68
2021/12/20 10:06:56;;;;;;;1.83;1.03;;;;;;;;;;4186277;28;20253;-67
2021/12/20 10:09:27;;;;;;;2.13;1.17;;;;;;;;;;4213511;28;20514;-67
2021/12/20 10:12:14;;;;;;;3.70;1.27;;;;;;;;;;4209444;28;20358;-67
2021/12/20 10:15:10;;;;;;;3.47;1.57;;;;;;;;;;4205907;28;20325;-66
2021/12/20 10:17:51;;;;;;;6.63;1.30;;;;;;;;;;4195643;28;20227;-66
2021/12/20 10:20:23;;;;;;;3.23;1.30;;;;;;;;;;4223898;28;20723;-67
2021/12/20 10:22:53;;;;;;;1.83;1.23;;;;;;;;;;4204306;28;21954;-67
2021/12/20 10:25:24;;;;;;;4.27;1.50;;;;;;;;;;4202505;28;20511;-68
2021/12/20 10:27:52;;;;;;;3.07;1.57;;;;;;;;;;4205704;28;21077;-69
2021/12/20 10:30:29;;;;;;;3.90;1.60;;;;;;;;;;4188281;28;20232;-69
2021/12/20 10:32:56;;;;;;;5.67;1.70;;;;;;;;;;4210132;28;20277;-70
2021/12/20 10:35:25;;;;;;;3.47;1.60;;;;;;;;;;4208503;28;20323;-68
2021/12/20 10:38:16;;;;;;;3.27;1.47;;;;;;;;;;4220196;28;20267;-70
2021/12/20 10:41:09;;;;;;;2.40;1.20;;;;;;;;;;4231848;28;20344;-71
2021/12/20 10:43:36;;;;;;;4.20;1.40;;;;;;;;;;4221211;28;20282;-72
2021/12/20 10:46:20;;;;;;;2.60;1.37;;;;;;;;;;4224800;28;20247;-71
2021/12/20 10:48:48;;;;;;;4.13;1.90;;;;;;;;;;4229411;28;20228;-71
2021/12/20 10:51:25;;;;;;;3.27;1.70;;;;;;;;;;4211152;28;25037;-69
2021/12/20 10:54:01;;;;;;;4.67;1.30;;;;;;;;;;4202306;28;20235;-70
2021/12/20 10:56:31;;;;;;;3.83;1.47;;;;;;;;;;4191432;28;20236;-70
2021/12/20 10:58:59;;;;;;;8.17;1.60;;;;;;;;;;4193695;28;20230;-72
2021/12/20 11:02:03;;;;;;;6.00;2.00;;;;;;;;;;4233110;28;20638;-71
2021/12/20 11:04:27;;;;;;;3.23;1.20;;;;;;;;;;4232373;28;20288;-70
2021/12/20 11:09:44;;;;;;;2.83;1.20;;;;;;;;;;4248716;28;20296;-69
2021/12/20 11:12:15;;;;;;;4.80;1.37;;;;;;;;;;4237183;28;25254;-71
2021/12/20 11:14:46;;;;;;;2.60;1.00;;;;;;;;;;4234479;28;21697;-69
2021/12/20 11:17:14;;;;;;;2.53;1.00;;;;;;;;;;4200665;28;20243;-71
2021/12/20 11:19:42;;;;;;;3.97;1.20;;;;;;;;;;4255983;28;21398;-71
2021/12/20 11:22:10;;;;;;;4.27;1.10;;;;;;;;;;4207875;28;20292;-72
2021/12/20 11:24:46;;;;;;;1.73;0.97;;;;;;;;;;4203018;28;20376;-72
2021/12/20 11:27:17;;;;;;;2.10;0.83;;;;;;;;;;4207889;28;20239;-71
2021/12/20 11:29:45;;;;;;;6.53;1.30;;;;;;;;;;4237056;28;21704;-69
2021/12/20 11:32:11;;;;;;;6.97;1.40;;;;;;;;;;4214892;28;20240;-72
2021/12/20 11:34:41;;;;;;;3.73;0.83;;;;;;;;;;4223638;28;21459;-69
2021/12/20 11:37:09;;;;;;;2.97;0.90;;;;;;;;;;4237381;28;20309;-69
2021/12/20 11:39:36;;;;;;;2.80;1.23;;;;;;;;;;4211807;28;20495;-70
2021/12/20 11:42:02;;;;;;;1.43;0.83;;;;;;;;;;4218557;28;20802;-70
2021/12/20 11:44:29;;;;;;;3.13;1.40;;;;;;;;;;4214600;28;20250;-70
2021/12/20 11:47:02;;;;;;;3.03;1.20;;;;;;;;;;4202593;28;20860;-70
2021/12/20 11:49:30;;;;;;;2.87;0.80;;;;;;;;;;4204005;28;20338;-71
2021/12/20 11:51:59;;;;;;;3.13;0.93;;;;;;;;;;4205290;28;21466;-71
2021/12/20 11:54:37;;;;;;;2.37;1.10;;;;;;;;;;4200445;28;20645;-71
2021/12/20 11:57:04;;;;;;;2.00;1.10;;;;;;;;;;4208224;28;21371;-69
2021/12/20 11:59:46;;;;;;;2.00;0.87;;;;;;;;;;4219799;28;20231;-71
2021/12/20 12:02:19;;;;;;;2.15;1.13;;;;;;;;;;4202416;28;21019;-72
2021/12/20 12:05:05;;;;;;;1.67;1.00;;;;;;;;;;4206729;28;20240;-72
2021/12/20 12:07:37;;;;;;;2.03;1.10;;;;;;;;;;4209673;28;20240;-71
2021/12/20 12:10:11;;;;;;;2.70;1.07;;;;;;;;;;4222913;28;20451;-76
2021/12/20 12:12:42;;;;;;;2.67;1.13;;;;;;;;;;4222152;28;20241;-74
2021/12/20 12:15:11;;;;;;;6.47;1.43;;;;;;;;;;4218022;28;20344;-77
2021/12/20 12:17:49;;;;;;;4.87;1.47;;;;;;;;;;4223162;28;22212;-77
2021/12/20 12:20:35;;;;;;;3.63;1.27;;;;;;;;;;4207873;28;20786;-75
2021/12/20 12:23:13;;;;;;;2.93;1.20;;;;;;;;;;4210167;28;20237;-73
2021/12/20 12:25:41;;;;;;;2.77;0.93;;;;;;;;;;4205310;28;21461;-73
2021/12/20 12:28:08;;;;;;;4.53;1.33;;;;;;;;;;4215141;28;20417;-73
2021/12/20 12:30:35;;;;;;;2.50;1.00;;;;;;;;;;4198921;28;21808;-80
2021/12/20 12:33:02;;;;;;;3.13;1.20;;;;;;;;;;4236820;28;20471;-73
2021/12/20 12:35:39;;;;;;;4.10;1.40;;;;;;;;;;4244901;28;20247;-73
2021/12/20 12:38:14;;;;;;;3.63;1.20;;;;;;;;;;4215167;28;20262;-76
2021/12/20 12:40:41;;;;;;;3.47;1.13;;;;;;;;;;4225419;28;21646;-72
2021/12/20 12:43:08;;;;;;;2.70;1.17;;;;;;;;;;4292011;28;20246;-74
2021/12/20 12:45:54;;;;;;;2.13;1.00;;;;;;;;;;4298609;28;20940;-72
2021/12/20 12:48:41;;;;;;;4.33;1.30;;;;;;;;;;4366704;28;25790;-72
2021/12/20 12:51:11;;;;;;;2.23;1.10;;;;;;;;;;4295295;28;21096;-72
2021/12/20 12:53:38;;;;;;;3.80;1.27;;;;;;;;;;4280173;28;21755;-74
2021/12/20 12:56:23;;;;;;;3.93;1.27;;;;;;;;;;4227906;28;20240;-74
2021/12/20 12:59:08;;;;;;;2.63;1.40;;;;;;;;;;4291274;28;22310;-75
2021/12/20 13:01:37;;;;;;;2.30;1.10;;;;;;;;;;4207242;28;21559;-72
2021/12/20 13:04:04;;;;;;;3.50;0.80;;;;;;;;;;4221555;28;20238;-69
2021/12/20 13:06:32;;;;;;;4.03;1.70;;;;;;;;;;4204608;28;20253;-72
2021/12/20 13:09:00;;;;;;;2.27;1.10;;;;;;;;;;4191657;28;21633;-70
2021/12/20 13:11:29;;;;;;;1.73;0.90;;;;;;;;;;4222798;28;22072;-71
2021/12/20 13:14:06;;;;;;;2.60;1.17;;;;;;;;;;4226694;28;20847;-71
2021/12/20 13:16:42;;;;;;;2.57;1.30;;;;;;;;;;4187177;28;20293;-72
2021/12/20 13:19:13;;;;;;;2.90;1.17;;;;;;;;;;4181912;28;22601;-71
2021/12/20 13:21:49;;;;;;;2.77;1.27;;;;;;;;;;4180202;28;22994;-71
2021/12/20 13:24:16;;;;;;;2.80;1.30;;;;;;;;;;4196453;28;20357;-71
2021/12/20 13:26:42;;;;;;;3.63;1.00;;;;;;;;;;4172062;28;20242;-69
2021/12/20 13:29:14;;;;;;;6.33;1.17;;;;;;;;;;4197403;28;23272;-72
2021/12/20 13:31:41;;;;;;;2.67;1.37;;;;;;;;;;4186633;28;21964;-70
2021/12/20 13:34:11;;;;;;;4.40;1.30;;;;;;;;;;4200108;28;20239;-71
2021/12/20 13:36:37;;;;;;;2.87;0.90;;;;;;;;;;4208028;28;20238;-69
2021/12/20 13:39:07;;;;;;;3.70;1.20;;;;;;;;;;4217668;28;20230;-72
2021/12/20 13:41:35;;;;;;;3.50;1.40;;;;;;;;;;4191189;28;20269;-69
2021/12/20 13:44:05;;;;;;;2.73;1.30;;;;;;;;;;4184037;28;23395;-70
2021/12/20 13:49:07;;;;;;;2.87;1.30;;;;;;;;;;4182056;28;20305;-70
2021/12/20 13:51:45;;;;;;;2.93;1.20;;;;;;;;;;4190125;28;20230;-69
2021/12/20 13:54:14;;;;;;;2.93;1.20;;;;;;;;;;4198951;28;20730;-76
2021/12/20 13:56:42;;;;;;;2.07;1.23;;;;;;;;;;4208558;28;20241;-69
2021/12/20 13:59:09;;;;;;;3.17;1.40;;;;;;;;;;4197224;28;20491;-70
2021/12/20 14:01:35;;;;;;;2.00;1.00;;;;;;;;;;4202136;28;21588;-71
2021/12/20 14:04:02;;;;;;;3.77;1.47;;;;;;;;;;4199839;28;20241;-71
2021/12/20 14:06:36;;;;;;;2.03;1.20;;;;;;;;;;4196381;28;21296;-68
2021/12/20 14:09:08;;;;;;;3.23;1.20;;;;;;;;;;4190926;28;21815;-69
2021/12/20 14:11:34;;;;;;;1.93;0.90;;;;;;;;;;4214949;28;20345;-70
2021/12/20 14:14:07;;;;;;;3.17;1.20;;;;;;;;;;4212807;28;22320;-72
2021/12/20 14:17:01;;;;;;;3.83;1.07;;;;;;;;;;4197160;28;20402;-73
2021/12/20 14:19:46;;;;;;;2.00;0.90;;;;;;;;;;4228958;28;20813;-69
2021/12/20 14:22:13;;;;;;;2.27;1.10;;;;;;;;;;4220763;28;20343;-68
2021/12/20 14:24:40;;;;;;;3.23;1.40;;;;;;;;;;4195356;28;21812;-69
2021/12/20 14:27:07;;;;;;;8.03;1.20;;;;;;;;;;4225620;28;20240;-71
2021/12/20 14:29:33;;;;;;;2.03;1.10;;;;;;;;;;4220964;28;20240;-70
2021/12/20 14:32:00;;;;;;;3.73;1.20;;;;;;;;;;4200300;28;20728;-73
2021/12/20 14:34:31;;;;;;;2.43;0.90;;;;;;;;;;4196289;28;20224;-70
2021/12/20 14:37:09;;;;;;;4.50;1.10;;;;;;;;;;4198464;28;20930;-69
2021/12/20 14:39:42;;;;;;;1.53;0.70;;;;;;;;;;4209715;28;20234;-71
2021/12/20 14:42:09;;;;;;;2.00;1.00;;;;;;;;;;4206309;28;20241;-68
2021/12/20 14:44:44;;;;;;;3.87;1.13;;;;;;;;;;4238924;28;20283;-70
2021/12/20 14:47:20;;;;;;;4.27;1.40;;;;;;;;;;4229348;28;20368;-70
2021/12/20 14:49:56;;;;;;;2.80;1.27;;;;;;;;;;4178579;28;20228;-73
2021/12/20 14:52:26;;;;;;;3.80;1.00;;;;;;;;;;4229818;28;20310;-70
2021/12/20 14:54:55;;;;;;;2.20;0.93;;;;;;;;;;4209668;28;22147;-68
2021/12/20 14:57:22;;;;;;;2.00;1.10;;;;;;;;;;4213265;28;20217;-71
2021/12/20 14:59:52;;;;;;;2.03;1.07;;;;;;;;;;4205395;28;21306;-70
2021/12/20 15:02:34;;;;;;;2.97;1.10;;;;;;;;;;4186385;28;21066;-68
2021/12/20 15:05:02;;;;;;;4.17;1.10;;;;;;;;;;4184473;28;20304;-69
2021/12/20 15:07:29;;;;;;;3.30;1.30;;;;;;;;;;4187878;28;20236;-71
2021/12/20 15:09:55;;;;;;;2.33;1.00;;;;;;;;;;4201635;28;20711;-69